createdAt,value
2023-09-11T00:00:15.699Z,64.77
2023-09-11T00:02:42.781Z,64.45
2023-09-11T00:05:09.864Z,65.10
2023-09-11T00:07:37.561Z,65.03
2023-09-11T00:10:05.433Z,65.29
2023-09-11T00:12:33.082Z,65.23
2023-09-11T00:15:00.107Z,65.33
2023-09-11T00:17:27.342Z,65.53
2023-09-11T00:19:55.558Z,65.78
2023-09-11T00:22:22.671Z,66.06
2023-09-11T00:24:49.632Z,65.74
2023-09-11T00:27:16.728Z,65.96
2023-09-11T00:29:43.632Z,65.57
2023-09-11T00:32:10.540Z,66.20
2023-09-11T00:34:37.419Z,66.23
2023-09-11T00:37:04.549Z,65.77
2023-09-11T00:39:31.486Z,66.26
2023-09-11T00:41:58.480Z,66.16
2023-09-11T00:44:26.356Z,66.40
2023-09-11T00:46:53.410Z,66.65
2023-09-11T00:49:22.107Z,66.35
2023-09-11T00:51:52.111Z,66.66
2023-09-11T00:54:22.380Z,66.84
2023-09-11T00:56:49.681Z,66.26
2023-09-11T00:59:17.254Z,66.55
2023-09-11T01:01:46.210Z,66.65
2023-09-11T01:04:14.046Z,66.63
2023-09-11T01:06:41.199Z,66.15
2023-09-11T01:09:08.236Z,66.12
2023-09-11T01:11:35.255Z,66.50
2023-09-11T01:14:02.968Z,66.43
2023-09-11T01:16:56.533Z,66.67
2023-09-11T01:19:55.813Z,66.75
2023-09-11T01:22:32.006Z,66.08
2023-09-11T01:25:36.385Z,65.96
2023-09-11T01:28:30.508Z,66.06
2023-09-11T01:31:00.578Z,65.47
2023-09-11T01:33:27.739Z,65.91
2023-09-11T01:35:54.791Z,65.31
2023-09-11T01:38:22.252Z,65.30
2023-09-11T01:40:53.927Z,65.61
2023-09-11T01:43:22.612Z,65.66
2023-09-11T01:45:50.133Z,65.63
2023-09-11T01:48:18.083Z,65.89
2023-09-11T01:50:45.342Z,65.77
2023-09-11T01:53:13.026Z,65.70
2023-09-11T01:55:40.352Z,66.04
2023-09-11T01:58:07.347Z,65.65
2023-09-11T02:00:35.047Z,65.61
2023-09-11T02:03:03.235Z,65.38
2023-09-11T02:05:30.341Z,66.00
2023-09-11T02:07:58.340Z,66.17
2023-09-11T02:10:25.325Z,65.90
2023-09-11T02:12:52.329Z,66.07
2023-09-11T02:15:19.361Z,66.63
2023-09-11T02:17:46.351Z,66.22
2023-09-11T02:20:13.407Z,66.70
2023-09-11T02:22:40.348Z,66.91
2023-09-11T02:25:07.546Z,66.66
2023-09-11T02:27:34.484Z,66.67
2023-09-11T02:30:02.784Z,66.50
2023-09-11T02:32:30.886Z,66.91
2023-09-11T02:34:57.919Z,66.92
2023-09-11T02:37:24.990Z,67.47
2023-09-11T02:39:52.065Z,68.06
2023-09-11T02:42:19.081Z,67.70
2023-09-11T02:44:46.083Z,68.05
2023-09-11T02:47:13.086Z,68.38
2023-09-11T02:49:40.455Z,67.95
2023-09-11T02:52:07.402Z,68.34
2023-09-11T02:54:34.711Z,68.34
2023-09-11T02:57:01.755Z,68.10
2023-09-11T02:59:28.818Z,68.22
2023-09-11T03:01:55.981Z,68.42
2023-09-11T03:04:23.228Z,68.18
2023-09-11T03:06:50.315Z,68.35
2023-09-11T03:09:17.753Z,68.40
2023-09-11T03:11:45.083Z,68.63
2023-09-11T03:14:14.949Z,68.48
2023-09-11T03:16:44.918Z,69.01
2023-09-11T03:19:12.557Z,68.59
2023-09-11T03:21:39.606Z,68.89
2023-09-11T03:24:06.963Z,68.52
2023-09-11T03:26:33.976Z,68.51
2023-09-11T03:29:00.955Z,68.22
2023-09-11T03:31:30.174Z,68.74
2023-09-11T03:33:59.204Z,69.04
2023-09-11T03:36:26.338Z,69.40
2023-09-11T03:38:53.323Z,69.63
2023-09-11T03:41:20.393Z,69.52
2023-09-11T03:43:47.917Z,69.61
2023-09-11T03:46:15.785Z,69.46
2023-09-11T03:48:46.108Z,69.42
2023-09-11T03:51:14.799Z,69.48
2023-09-11T03:53:46.966Z,69.19
2023-09-11T03:56:19.595Z,69.43
2023-09-11T03:58:47.184Z,69.15
2023-09-11T04:01:17.658Z,69.29
2023-09-11T04:03:45.284Z,68.36
2023-09-11T04:06:12.388Z,68.63
2023-09-11T04:08:39.366Z,68.29
2023-09-11T04:11:06.265Z,68.48
2023-09-11T04:13:33.259Z,68.15
2023-09-11T04:16:00.268Z,68.83
2023-09-11T04:18:27.404Z,68.57
2023-09-11T04:21:04.722Z,68.85
2023-09-11T04:23:33.216Z,68.27
2023-09-11T04:26:01.090Z,68.88
2023-09-11T04:28:28.346Z,69.15
2023-09-11T04:30:55.611Z,69.43
2023-09-11T04:33:23.444Z,69.65
2023-09-11T04:35:50.862Z,69.43
2023-09-11T04:38:17.833Z,69.63
2023-09-11T04:40:44.732Z,69.96
2023-09-11T04:43:11.741Z,70.34
2023-09-11T04:45:39.104Z,70.33
2023-09-11T04:48:07.049Z,69.85
2023-09-11T04:50:34.838Z,69.97
2023-09-11T04:53:03.576Z,70.09
2023-09-11T04:55:30.832Z,70.46
2023-09-11T04:57:57.869Z,70.19
2023-09-11T05:00:25.765Z,70.43
2023-09-11T05:02:53.150Z,70.42
2023-09-11T05:05:20.178Z,70.66
2023-09-11T05:07:47.215Z,70.36
2023-09-11T05:10:15.923Z,70.41
2023-09-11T05:12:43.419Z,70.39
2023-09-11T05:15:11.177Z,70.40
2023-09-11T05:17:38.359Z,70.72
2023-09-11T05:20:11.576Z,70.63
2023-09-11T05:22:40.997Z,70.58
2023-09-11T05:25:08.858Z,70.69
2023-09-11T05:27:35.970Z,71.12
2023-09-11T05:30:03.546Z,71.25
2023-09-11T05:32:34.272Z,70.94
2023-09-11T05:35:01.387Z,71.03
2023-09-11T05:37:28.615Z,71.03
2023-09-11T05:39:55.709Z,71.05
2023-09-11T05:42:22.942Z,71.16
2023-09-11T05:44:50.150Z,70.84
2023-09-11T05:47:17.703Z,70.96
2023-09-11T05:49:45.000Z,70.64
2023-09-11T05:52:12.645Z,71.17
2023-09-11T05:54:39.946Z,71.16
2023-09-11T05:57:07.594Z,71.35
2023-09-11T05:59:35.495Z,71.69
2023-09-11T06:02:02.605Z,71.50
2023-09-11T06:04:32.178Z,71.70
2023-09-11T06:06:59.236Z,71.62
2023-09-11T06:09:26.141Z,71.46
2023-09-11T06:11:53.790Z,71.33
2023-09-11T06:14:20.838Z,71.28
2023-09-11T06:16:47.896Z,71.74
2023-09-11T06:19:14.937Z,71.50
2023-09-11T06:21:45.778Z,71.41
2023-09-11T06:24:13.612Z,71.47
2023-09-11T06:26:43.089Z,71.59
2023-09-11T06:29:10.111Z,71.05
2023-09-11T06:31:37.081Z,70.60
2023-09-11T06:34:04.210Z,70.53
2023-09-11T06:36:31.172Z,70.26
2023-09-11T06:38:58.213Z,70.27
2023-09-11T06:41:25.214Z,70.76
2023-09-11T06:43:52.218Z,70.17
2023-09-11T06:46:19.258Z,70.07
2023-09-11T06:48:46.572Z,69.59
2023-09-11T06:51:13.882Z,68.94
2023-09-11T06:53:40.872Z,68.38
2023-09-11T06:56:09.431Z,67.83
2023-09-11T06:58:36.422Z,67.01
2023-09-11T07:01:04.321Z,66.47
2023-09-11T07:03:31.400Z,65.87
2023-09-11T07:05:58.632Z,65.92
2023-09-11T07:08:25.657Z,65.39
2023-09-11T07:10:53.194Z,64.16
2023-09-11T07:13:20.178Z,63.00
2023-09-11T07:15:58.050Z,62.48
2023-09-11T07:18:25.593Z,61.17
2023-09-11T07:20:53.397Z,60.71
2023-09-11T07:23:21.816Z,60.03
2023-09-11T07:25:48.858Z,59.74
2023-09-11T07:28:15.926Z,59.44
2023-09-11T07:30:44.936Z,59.49
2023-09-11T07:33:13.123Z,58.30
2023-09-11T07:35:40.228Z,57.84
2023-09-11T07:38:07.437Z,56.61
2023-09-11T07:40:34.484Z,55.60
2023-09-11T07:43:01.688Z,55.11
2023-09-11T07:45:28.711Z,55.61
2023-09-11T07:47:56.347Z,54.10
2023-09-11T07:50:23.387Z,53.64
2023-09-11T07:52:51.718Z,52.61
2023-09-11T07:55:20.568Z,51.95
2023-09-11T07:57:47.866Z,51.89
2023-09-11T08:00:15.391Z,51.25
2023-09-11T08:02:42.753Z,49.87
2023-09-11T08:05:10.313Z,49.62
2023-09-11T08:07:37.394Z,48.33
2023-09-11T08:10:04.943Z,48.45
2023-09-11T08:12:34.248Z,48.42
2023-09-11T08:15:01.195Z,47.95
2023-09-11T08:17:29.264Z,47.37
2023-09-11T08:19:56.282Z,46.82
2023-09-11T08:22:23.284Z,46.67
2023-09-11T08:24:50.234Z,46.20
2023-09-11T08:27:17.378Z,46.24
2023-09-11T08:29:44.374Z,46.00
2023-09-11T08:32:11.374Z,45.13
2023-09-11T08:34:38.301Z,44.88
2023-09-11T08:37:05.260Z,45.35
2023-09-11T08:39:32.205Z,44.53
2023-09-11T08:42:02.100Z,43.71
2023-09-11T08:44:29.232Z,43.05
2023-09-11T08:47:00.016Z,43.06
2023-09-11T08:49:31.973Z,42.03
2023-09-11T08:52:01.021Z,41.30
2023-09-11T08:54:38.809Z,41.44
2023-09-11T08:57:08.312Z,40.89
2023-09-11T08:59:39.209Z,41.04
2023-09-11T09:02:07.037Z,40.05
2023-09-11T09:04:36.501Z,39.84
2023-09-11T09:07:04.065Z,39.33
2023-09-11T09:09:32.340Z,38.89
2023-09-11T09:11:59.835Z,38.61
2023-09-11T09:14:31.811Z,38.37
2023-09-11T09:17:00.238Z,37.85
2023-09-11T09:19:27.208Z,37.37
2023-09-11T09:22:14.367Z,37.25
2023-09-11T09:24:55.730Z,36.54
2023-09-11T09:27:29.915Z,35.99
2023-09-11T09:29:57.029Z,34.83
2023-09-11T09:32:24.111Z,35.02
2023-09-11T09:34:54.453Z,34.54
2023-09-11T09:37:22.579Z,35.37
2023-09-11T09:39:51.479Z,36.25
2023-09-11T09:42:19.145Z,37.17
2023-09-11T09:44:50.614Z,37.94
2023-09-11T09:47:23.210Z,38.90
2023-09-11T09:49:52.677Z,39.72
2023-09-11T09:52:22.007Z,40.19
2023-09-11T09:54:54.218Z,41.09
2023-09-11T09:57:23.411Z,41.84
2023-09-11T09:59:55.878Z,42.16
2023-09-11T10:02:28.864Z,42.69
2023-09-11T10:05:03.021Z,43.49
2023-09-11T10:07:46.880Z,43.90
2023-09-11T10:10:28.509Z,44.31
2023-09-11T10:13:01.538Z,44.58
2023-09-11T10:15:30.397Z,44.23
2023-09-11T10:17:57.856Z,44.45
2023-09-11T10:20:26.159Z,45.20
2023-09-11T10:23:00.724Z,45.56
2023-09-11T10:25:29.966Z,46.14
2023-09-11T10:28:15.082Z,45.92
2023-09-11T10:31:05.372Z,45.72
2023-09-11T10:33:35.998Z,45.81
2023-09-11T10:36:09.151Z,46.59
2023-09-11T10:38:38.013Z,46.11
2023-09-11T10:41:07.031Z,46.79
2023-09-11T10:43:34.186Z,46.40
2023-09-11T10:46:33.709Z,47.38
2023-09-11T10:49:01.790Z,47.59
2023-09-11T10:51:32.550Z,47.83
2023-09-11T10:54:00.097Z,47.58
2023-09-11T10:56:27.172Z,47.95
2023-09-11T10:58:54.281Z,48.24
2023-09-11T11:01:23.912Z,48.37
2023-09-11T11:03:51.464Z,48.10
2023-09-11T11:06:19.413Z,48.26
2023-09-11T11:08:47.856Z,47.43
2023-09-11T11:11:30.914Z,48.24
2023-09-11T11:14:19.148Z,48.75
2023-09-11T11:17:01.778Z,48.39
2023-09-11T11:19:31.084Z,48.76
2023-09-11T11:21:58.634Z,48.30
2023-09-11T11:24:25.969Z,48.51
2023-09-11T11:26:57.641Z,48.77
2023-09-11T11:29:30.531Z,48.83
2023-09-11T11:32:00.515Z,48.08
2023-09-11T11:34:31.178Z,48.69
2023-09-11T11:36:59.750Z,48.80
2023-09-11T11:39:28.739Z,49.39
2023-09-11T11:41:56.656Z,48.57
2023-09-11T11:44:25.858Z,48.61
2023-09-11T11:46:54.613Z,48.92
2023-09-11T11:49:22.182Z,48.93
2023-09-11T11:51:49.241Z,49.08
2023-09-11T11:54:24.419Z,48.95
2023-09-11T11:57:04.574Z,48.74
2023-09-11T11:59:31.895Z,48.97
2023-09-11T12:01:59.049Z,48.63
2023-09-11T12:04:45.025Z,49.45
2023-09-11T12:07:12.656Z,48.64
2023-09-11T12:09:40.788Z,48.46
2023-09-11T12:12:09.509Z,48.68
2023-09-11T12:14:38.216Z,48.86
2023-09-11T12:17:10.172Z,48.75
2023-09-11T12:19:37.197Z,49.16
2023-09-11T12:22:06.881Z,48.74
2023-09-11T12:24:34.267Z,48.76
2023-09-11T12:27:01.832Z,48.91
2023-09-11T12:29:34.026Z,48.94
2023-09-11T12:32:01.581Z,48.57
2023-09-11T12:34:43.793Z,48.26
2023-09-11T12:37:11.069Z,48.60
2023-09-11T12:39:38.013Z,48.32
2023-09-11T12:42:05.516Z,48.21
2023-09-11T12:44:33.257Z,48.13
2023-09-11T12:47:03.199Z,47.92
2023-09-11T12:49:30.305Z,47.21
2023-09-11T12:51:57.250Z,47.62
2023-09-11T12:54:25.644Z,47.56
2023-09-11T12:56:52.840Z,48.20
2023-09-11T12:59:19.864Z,47.76
2023-09-11T13:01:46.837Z,47.41
2023-09-11T13:04:13.824Z,47.93
2023-09-11T13:06:40.817Z,47.73
2023-09-11T13:09:07.748Z,47.81
2023-09-11T13:11:34.668Z,47.26
2023-09-11T13:14:14.791Z,47.25
2023-09-11T13:16:44.935Z,47.31
2023-09-11T13:19:12.971Z,47.45
2023-09-11T13:21:39.945Z,46.63
2023-09-11T13:24:07.249Z,48.14
2023-09-11T13:26:34.406Z,47.71
2023-09-11T13:29:01.361Z,47.30
2023-09-11T13:31:28.829Z,47.13
2023-09-11T13:33:56.264Z,48.01
2023-09-11T13:36:23.390Z,47.82
2023-09-11T13:38:50.481Z,47.20
2023-09-11T13:41:17.443Z,47.38
2023-09-11T13:43:44.722Z,47.95
2023-09-11T13:46:12.349Z,47.60
2023-09-11T13:48:39.572Z,47.51
2023-09-11T13:51:06.988Z,48.06
2023-09-11T13:53:33.993Z,47.54
2023-09-11T13:56:01.057Z,47.57
2023-09-11T13:58:28.091Z,47.65
2023-09-11T14:00:55.046Z,47.82
2023-09-11T14:03:22.185Z,48.08
2023-09-11T14:05:49.227Z,48.13
2023-09-11T14:08:16.634Z,47.95
2023-09-11T14:10:43.630Z,48.31
2023-09-11T14:13:11.990Z,48.55
2023-09-11T14:15:40.016Z,48.90
2023-09-11T14:18:07.869Z,48.67
2023-09-11T14:20:35.176Z,48.68
2023-09-11T14:23:02.303Z,48.53
2023-09-11T14:25:29.213Z,49.42
2023-09-11T14:27:56.244Z,49.94
2023-09-11T14:30:23.408Z,49.64
2023-09-11T14:32:50.659Z,49.88
2023-09-11T14:35:18.507Z,50.39
2023-09-11T14:37:45.616Z,50.26
2023-09-11T14:40:13.531Z,50.31
2023-09-11T14:42:41.598Z,50.85
2023-09-11T14:45:10.240Z,51.24
2023-09-11T14:47:37.359Z,51.52
2023-09-11T14:50:07.393Z,51.61
2023-09-11T14:52:34.530Z,51.31
2023-09-11T14:55:01.565Z,50.77
2023-09-11T14:57:28.712Z,51.34
2023-09-11T14:59:55.854Z,51.27
2023-09-11T15:02:23.073Z,51.08
2023-09-11T15:04:51.985Z,51.52
2023-09-11T15:07:20.820Z,51.90
2023-09-11T15:09:49.353Z,51.30
2023-09-11T15:12:16.929Z,51.93
2023-09-11T15:14:45.330Z,51.94
2023-09-11T15:17:13.159Z,51.20
2023-09-11T15:19:41.956Z,50.93
2023-09-11T15:22:11.660Z,51.16
2023-09-11T15:24:38.679Z,50.48
2023-09-11T15:27:05.910Z,50.61
2023-09-11T15:29:33.073Z,50.83
2023-09-11T15:34:31.385Z,50.64
2023-09-11T15:36:58.320Z,50.52
2023-09-11T15:39:25.282Z,50.39
2023-09-11T15:41:52.340Z,50.70
2023-09-11T15:44:19.290Z,50.87
2023-09-11T15:46:46.324Z,50.63
2023-09-11T15:49:13.329Z,50.84
2023-09-11T15:51:40.339Z,51.12
2023-09-11T15:54:07.503Z,50.64
2023-09-11T15:56:34.499Z,50.72
2023-09-11T15:59:01.564Z,50.66
2023-09-11T16:01:28.542Z,51.15
2023-09-11T16:03:55.650Z,51.24
2023-09-11T16:06:22.681Z,51.09
2023-09-11T16:08:49.945Z,50.97
2023-09-11T16:11:17.287Z,50.84
2023-09-11T16:13:44.221Z,50.95
2023-09-11T16:16:11.269Z,50.95
2023-09-11T16:18:38.347Z,50.92
2023-09-11T16:21:05.327Z,51.12
2023-09-11T16:23:33.767Z,51.28
2023-09-11T16:26:00.732Z,50.84
2023-09-11T16:28:27.808Z,50.76
2023-09-11T16:30:54.751Z,50.79
2023-09-11T16:33:22.460Z,50.89
2023-09-11T16:35:49.647Z,50.81
2023-09-11T16:38:16.702Z,50.58
2023-09-11T16:40:43.692Z,50.84
2023-09-11T16:43:11.285Z,50.60
2023-09-11T16:45:38.861Z,51.26
2023-09-11T16:48:06.345Z,51.17
2023-09-11T16:50:33.516Z,51.83
2023-09-11T16:53:00.491Z,51.95
2023-09-11T16:55:27.555Z,51.96
2023-09-11T16:57:54.551Z,52.19
2023-09-11T17:00:24.483Z,52.24
2023-09-11T17:02:53.973Z,52.69
2023-09-11T17:05:21.758Z,52.45
2023-09-11T17:07:49.096Z,53.13
2023-09-11T17:10:16.158Z,53.05
2023-09-11T17:12:44.201Z,52.87
2023-09-11T17:15:11.745Z,53.10
2023-09-11T17:17:40.612Z,52.87
2023-09-11T17:20:08.080Z,52.71
2023-09-11T17:22:35.108Z,52.72
2023-09-11T17:25:02.646Z,53.00
2023-09-11T17:27:30.470Z,53.58
2023-09-11T17:29:57.468Z,53.76
2023-09-11T17:32:24.573Z,54.30
2023-09-11T17:34:54.334Z,54.45
2023-09-11T17:37:21.367Z,54.80
2023-09-11T17:39:49.951Z,54.64
2023-09-11T17:42:17.132Z,55.08
2023-09-11T17:44:44.224Z,54.95
2023-09-11T17:47:11.239Z,55.69
2023-09-11T17:49:38.241Z,55.75
2023-09-11T17:52:05.431Z,55.78
2023-09-11T17:54:32.523Z,56.01
2023-09-11T17:56:59.619Z,55.54
2023-09-11T17:59:26.732Z,56.16
2023-09-11T18:01:53.688Z,56.16
2023-09-11T18:04:20.754Z,56.32
2023-09-11T18:06:48.200Z,56.44
2023-09-11T18:09:15.776Z,56.09
2023-09-11T18:11:43.380Z,56.08
2023-09-11T18:14:10.699Z,56.44
2023-09-11T18:16:37.801Z,56.53
2023-09-11T18:19:04.781Z,56.78
2023-09-11T18:21:33.284Z,56.47
2023-09-11T18:24:00.371Z,56.69
2023-09-11T18:26:28.961Z,56.94
2023-09-11T18:28:58.613Z,56.83
2023-09-11T18:31:25.639Z,56.79
2023-09-11T18:33:52.785Z,56.68
2023-09-11T18:36:20.166Z,56.86
2023-09-11T18:38:47.293Z,56.87
2023-09-11T18:41:14.303Z,56.95
2023-09-11T18:43:42.277Z,56.74
2023-09-11T18:46:09.343Z,56.68
2023-09-11T18:48:41.760Z,57.08
2023-09-11T18:51:08.999Z,56.82
2023-09-11T18:53:36.068Z,57.02
2023-09-11T18:56:03.114Z,57.03
2023-09-11T18:58:30.169Z,57.69
2023-09-11T19:00:57.166Z,57.26
2023-09-11T19:03:25.035Z,57.64
2023-09-11T19:05:55.008Z,57.46
2023-09-11T19:08:23.150Z,58.00
2023-09-11T19:10:51.118Z,57.69
2023-09-11T19:13:18.222Z,58.03
2023-09-11T19:15:46.113Z,57.94
2023-09-11T19:18:14.160Z,57.76
2023-09-11T19:20:46.115Z,58.36
2023-09-11T19:23:14.961Z,58.29
2023-09-11T19:25:41.911Z,58.06
2023-09-11T19:28:08.927Z,58.71
2023-09-11T19:30:39.034Z,58.69
2023-09-11T19:33:06.253Z,59.13
2023-09-11T19:35:33.297Z,58.92
2023-09-11T19:38:00.243Z,59.23
2023-09-11T19:40:27.184Z,59.21
2023-09-11T19:42:54.161Z,59.69
2023-09-11T19:45:21.212Z,60.05
2023-09-11T19:47:48.231Z,60.47
2023-09-11T19:50:15.440Z,60.71
2023-09-11T19:52:42.567Z,61.45
2023-09-11T19:55:09.694Z,62.06
2023-09-11T19:57:37.498Z,62.42
2023-09-11T20:00:05.200Z,62.31
2023-09-11T20:02:35.461Z,62.24
2023-09-11T20:05:05.576Z,63.29
2023-09-11T20:07:32.597Z,63.10
2023-09-11T20:10:05.302Z,63.58
2023-09-11T20:12:33.532Z,63.88
2023-09-11T20:15:00.660Z,63.55
2023-09-11T20:17:28.742Z,63.56
2023-09-11T20:19:57.463Z,63.39
2023-09-11T20:22:24.391Z,64.10
2023-09-11T20:24:51.333Z,63.77
2023-09-11T20:27:18.343Z,64.11
2023-09-11T20:29:45.345Z,64.15
2023-09-11T20:32:12.389Z,64.37
2023-09-11T20:34:39.663Z,64.35
2023-09-11T20:37:07.135Z,64.88
2023-09-11T20:39:34.195Z,64.93
2023-09-11T20:42:01.264Z,65.19
2023-09-11T20:44:28.423Z,65.18
2023-09-11T20:46:55.721Z,64.80
2023-09-11T20:49:22.729Z,64.91
2023-09-11T20:51:49.720Z,65.41
2023-09-11T20:54:17.230Z,66.46
2023-09-11T20:56:44.631Z,67.07
2023-09-11T20:59:11.607Z,67.55
2023-09-11T21:01:41.444Z,67.57
2023-09-11T21:04:11.079Z,66.93
2023-09-11T21:06:38.524Z,67.03
2023-09-11T21:09:05.702Z,67.14
2023-09-11T21:11:34.476Z,67.67
2023-09-11T21:14:01.840Z,67.59
2023-09-11T21:16:31.419Z,66.76
2023-09-11T21:18:58.502Z,66.92
2023-09-11T21:21:25.610Z,66.58
2023-09-11T21:23:52.602Z,67.11
2023-09-11T21:26:19.603Z,66.22
2023-09-11T21:28:46.540Z,66.78
2023-09-11T21:31:13.471Z,66.93
2023-09-11T21:33:40.606Z,66.74
2023-09-11T21:36:07.703Z,66.99
2023-09-11T21:38:34.774Z,66.68
2023-09-11T21:41:01.745Z,67.04
2023-09-11T21:43:28.645Z,67.56
2023-09-11T21:45:55.639Z,67.21
2023-09-11T21:48:22.668Z,67.07
2023-09-11T21:50:49.858Z,67.64
2023-09-11T21:53:16.808Z,67.77
2023-09-11T21:55:43.802Z,67.83
2023-09-11T21:58:10.718Z,67.41
2023-09-11T22:00:37.944Z,67.37
2023-09-11T22:03:05.028Z,67.13
2023-09-11T22:05:33.794Z,67.08
2023-09-11T22:08:00.771Z,67.09
2023-09-11T22:10:28.030Z,67.69
2023-09-11T22:12:55.063Z,67.33
2023-09-11T22:15:22.106Z,67.61
2023-09-11T22:17:49.238Z,67.79
2023-09-11T22:20:16.230Z,67.39
2023-09-11T22:22:43.213Z,67.77
2023-09-11T22:25:10.385Z,67.59
2023-09-11T22:27:37.329Z,67.99
2023-09-11T22:30:04.670Z,67.91
2023-09-11T22:32:44.879Z,67.45
2023-09-11T22:35:18.856Z,67.34
2023-09-11T22:37:45.770Z,67.63
2023-09-11T22:40:12.758Z,67.78
2023-09-11T22:42:39.693Z,67.34
2023-09-11T22:45:07.447Z,67.49
2023-09-11T22:47:34.423Z,67.76
2023-09-11T22:50:01.407Z,68.50
2023-09-11T22:52:28.436Z,67.81
2023-09-11T22:54:55.356Z,67.55
2023-09-11T22:57:22.370Z,67.55
2023-09-11T22:59:49.434Z,67.30
2023-09-11T23:02:16.436Z,67.24
2023-09-11T23:04:43.358Z,66.96
2023-09-11T23:07:10.810Z,67.28
2023-09-11T23:09:37.789Z,67.10
2023-09-11T23:12:04.982Z,67.03
2023-09-11T23:14:32.088Z,66.87
2023-09-11T23:16:59.055Z,67.42
2023-09-11T23:19:26.013Z,67.32
2023-09-11T23:21:54.325Z,67.42
2023-09-11T23:24:21.347Z,67.74
2023-09-11T23:26:51.607Z,67.92
2023-09-11T23:29:19.251Z,68.09
2023-09-11T23:31:46.506Z,67.97
2023-09-11T23:34:13.484Z,68.30
2023-09-11T23:36:40.675Z,67.55
2023-09-11T23:39:10.380Z,67.72
2023-09-11T23:41:37.619Z,67.68
2023-09-11T23:44:05.394Z,68.02
2023-09-11T23:46:32.512Z,67.90
2023-09-11T23:48:59.468Z,68.38
2023-09-11T23:51:26.639Z,68.71
2023-09-11T23:53:54.024Z,68.35
2023-09-11T23:56:20.966Z,68.80
2023-09-11T23:58:47.946Z,68.55
